sensor_id;sensor_type;location;lat;lon;timestamp;P1;durP1;ratioP1;P2;durP2;ratioP2
62554;SDS011;48610;52.144;8.624;2023-03-19T00:02:13;22.67;;;13.52;;
62554;SDS011;48610;52.144;8.624;2023-03-19T00:05:14;22.15;;;13.43;;
62554;SDS011;48610;52.144;8.624;2023-03-19T00:08:14;20.83;;;12.98;;
62554;SDS011;48610;52.144;8.624;2023-03-19T00:11:15;21.55;;;12.93;;
62554;SDS011;48610;52.144;8.624;2023-03-19T00:14:16;21.55;;;12.93;;
62554;SDS011;48610;52.144;8.624;2023-03-19T00:17:16;17.40;;;12.25;;
62554;SDS011;48610;52.144;8.624;2023-03-19T00:20:17;18.05;;;11.70;;
62554;SDS011;48610;52.144;8.624;2023-03-19T00:23:19;19.88;;;12.68;;
62554;SDS011;48610;52.144;8.624;2023-03-19T00:26:19;17.13;;;11.77;;
62554;SDS011;48610;52.144;8.624;2023-03-19T00:29:20;19.05;;;11.88;;
62554;SDS011;48610;52.144;8.624;2023-03-19T00:32:22;17.98;;;11.68;;
62554;SDS011;48610;52.144;8.624;2023-03-19T00:35:22;19.88;;;12.13;;
62554;SDS011;48610;52.144;8.624;2023-03-19T00:38:23;19.35;;;11.55;;
62554;SDS011;48610;52.144;8.624;2023-03-19T00:41:24;17.33;;;11.20;;
62554;SDS011;48610;52.144;8.624;2023-03-19T00:44:24;19.52;;;11.05;;
62554;SDS011;48610;52.144;8.624;2023-03-19T00:47:25;18.10;;;10.95;;
62554;SDS011;48610;52.144;8.624;2023-03-19T00:50:26;19.90;;;10.38;;
62554;SDS011;48610;52.144;8.624;2023-03-19T00:53:27;18.67;;;11.05;;
62554;SDS011;48610;52.144;8.624;2023-03-19T00:56:27;19.83;;;11.18;;
62554;SDS011;48610;52.144;8.624;2023-03-19T00:59:28;14.65;;;9.73;;
62554;SDS011;48610;52.144;8.624;2023-03-19T01:02:29;16.98;;;10.38;;
62554;SDS011;48610;52.144;8.624;2023-03-19T01:05:31;19.10;;;10.80;;
62554;SDS011;48610;52.144;8.624;2023-03-19T01:08:33;21.35;;;11.00;;
62554;SDS011;48610;52.144;8.624;2023-03-19T01:11:34;17.27;;;10.40;;
62554;SDS011;48610;52.144;8.624;2023-03-19T01:14:35;15.27;;;10.35;;
62554;SDS011;48610;52.144;8.624;2023-03-19T01:17:36;18.73;;;10.77;;
62554;SDS011;48610;52.144;8.624;2023-03-19T01:20:37;19.80;;;10.88;;
62554;SDS011;48610;52.144;8.624;2023-03-19T01:23:39;16.70;;;10.50;;
62554;SDS011;48610;52.144;8.624;2023-03-19T01:26:40;18.15;;;11.20;;
62554;SDS011;48610;52.144;8.624;2023-03-19T01:29:40;22.17;;;12.10;;
62554;SDS011;48610;52.144;8.624;2023-03-19T01:32:41;19.73;;;10.73;;
62554;SDS011;48610;52.144;8.624;2023-03-19T01:35:43;20.17;;;11.13;;
62554;SDS011;48610;52.144;8.624;2023-03-19T01:38:46;18.20;;;10.85;;
62554;SDS011;48610;52.144;8.624;2023-03-19T01:41:47;23.08;;;12.35;;
62554;SDS011;48610;52.144;8.624;2023-03-19T01:44:47;22.50;;;11.85;;
62554;SDS011;48610;52.144;8.624;2023-03-19T01:47:48;17.77;;;10.73;;
62554;SDS011;48610;52.144;8.624;2023-03-19T01:50:48;16.75;;;11.35;;
62554;SDS011;48610;52.144;8.624;2023-03-19T01:53:50;20.42;;;11.00;;
62554;SDS011;48610;52.144;8.624;2023-03-19T01:56:57;36.60;;;17.17;;
62554;SDS011;48610;52.144;8.624;2023-03-19T02:00:02;17.80;;;9.35;;
62554;SDS011;48610;52.144;8.624;2023-03-19T02:03:06;14.98;;;9.05;;
62554;SDS011;48610;52.144;8.624;2023-03-19T02:06:07;12.73;;;9.07;;
62554;SDS011;48610;52.144;8.624;2023-03-19T02:09:10;17.40;;;10.82;;
62554;SDS011;48610;52.144;8.624;2023-03-19T02:12:11;15.30;;;10.30;;
62554;SDS011;48610;52.144;8.624;2023-03-19T02:15:12;15.75;;;9.57;;
62554;SDS011;48610;52.144;8.624;2023-03-19T02:18:13;18.38;;;9.80;;
62554;SDS011;48610;52.144;8.624;2023-03-19T02:21:15;16.17;;;9.93;;
62554;SDS011;48610;52.144;8.624;2023-03-19T02:24:25;15.73;;;9.00;;
62554;SDS011;48610;52.144;8.624;2023-03-19T02:27:34;14.27;;;9.25;;
62554;SDS011;48610;52.144;8.624;2023-03-19T02:30:36;15.45;;;9.38;;
62554;SDS011;48610;52.144;8.624;2023-03-19T02:33:37;15.23;;;9.23;;
62554;SDS011;48610;52.144;8.624;2023-03-19T02:36:39;17.00;;;9.70;;
62554;SDS011;48610;52.144;8.624;2023-03-19T02:39:48;19.00;;;10.13;;
62554;SDS011;48610;52.144;8.624;2023-03-19T02:42:49;12.43;;;9.15;;
62554;SDS011;48610;52.144;8.624;2023-03-19T02:45:49;14.60;;;9.02;;
62554;SDS011;48610;52.144;8.624;2023-03-19T02:48:50;22.60;;;10.05;;
62554;SDS011;48610;52.144;8.624;2023-03-19T02:51:51;15.07;;;9.52;;
62554;SDS011;48610;52.144;8.624;2023-03-19T02:54:52;17.85;;;9.73;;
62554;SDS011;48610;52.144;8.624;2023-03-19T02:57:52;17.13;;;10.18;;
62554;SDS011;48610;52.144;8.624;2023-03-19T03:00:53;14.75;;;10.18;;
62554;SDS011;48610;52.144;8.624;2023-03-19T03:03:54;16.52;;;10.10;;
62554;SDS011;48610;52.144;8.624;2023-03-19T03:06:55;17.67;;;9.90;;
62554;SDS011;48610;52.144;8.624;2023-03-19T03:09:56;22.30;;;10.13;;
62554;SDS011;48610;52.144;8.624;2023-03-19T03:12:58;17.17;;;10.48;;
62554;SDS011;48610;52.144;8.624;2023-03-19T03:15:58;16.70;;;9.98;;
62554;SDS011;48610;52.144;8.624;2023-03-19T03:18:59;17.70;;;10.07;;
62554;SDS011;48610;52.144;8.624;2023-03-19T03:22:01;16.35;;;9.38;;
62554;SDS011;48610;52.144;8.624;2023-03-19T03:25:02;17.42;;;9.35;;
62554;SDS011;48610;52.144;8.624;2023-03-19T03:28:03;13.32;;;9.10;;
62554;SDS011;48610;52.144;8.624;2023-03-19T03:31:03;16.27;;;9.05;;
62554;SDS011;48610;52.144;8.624;2023-03-19T03:34:04;12.10;;;8.80;;
62554;SDS011;48610;52.144;8.624;2023-03-19T03:37:05;18.17;;;9.80;;
62554;SDS011;48610;52.144;8.624;2023-03-19T03:40:05;14.25;;;9.13;;
62554;SDS011;48610;52.144;8.624;2023-03-19T03:43:07;17.25;;;9.07;;
62554;SDS011;48610;52.144;8.624;2023-03-19T03:46:09;18.13;;;9.80;;
62554;SDS011;48610;52.144;8.624;2023-03-19T03:49:09;16.23;;;9.73;;
62554;SDS011;48610;52.144;8.624;2023-03-19T03:52:10;15.45;;;9.80;;
62554;SDS011;48610;52.144;8.624;2023-03-19T03:55:11;15.35;;;9.75;;
62554;SDS011;48610;52.144;8.624;2023-03-19T03:58:11;19.67;;;8.60;;
62554;SDS011;48610;52.144;8.624;2023-03-19T04:01:15;16.48;;;9.23;;
62554;SDS011;48610;52.144;8.624;2023-03-19T04:04:16;11.00;;;8.20;;
62554;SDS011;48610;52.144;8.624;2023-03-19T04:07:19;14.85;;;8.68;;
62554;SDS011;48610;52.144;8.624;2023-03-19T04:10:19;15.05;;;9.48;;
62554;SDS011;48610;52.144;8.624;2023-03-19T04:13:20;13.63;;;8.75;;
62554;SDS011;48610;52.144;8.624;2023-03-19T04:16:20;24.55;;;9.15;;
62554;SDS011;48610;52.144;8.624;2023-03-19T04:19:21;13.70;;;8.80;;
62554;SDS011;48610;52.144;8.624;2023-03-19T04:22:22;19.95;;;8.90;;
62554;SDS011;48610;52.144;8.624;2023-03-19T04:25:22;17.30;;;8.88;;
62554;SDS011;48610;52.144;8.624;2023-03-19T04:28:23;13.43;;;7.80;;
62554;SDS011;48610;52.144;8.624;2023-03-19T04:31:23;14.13;;;8.27;;
62554;SDS011;48610;52.144;8.624;2023-03-19T04:34:24;13.65;;;9.30;;
62554;SDS011;48610;52.144;8.624;2023-03-19T04:37:25;15.68;;;9.65;;
62554;SDS011;48610;52.144;8.624;2023-03-19T04:40:26;15.63;;;9.02;;
62554;SDS011;48610;52.144;8.624;2023-03-19T04:43:26;16.25;;;8.50;;
62554;SDS011;48610;52.144;8.624;2023-03-19T04:46:27;16.60;;;8.45;;
62554;SDS011;48610;52.144;8.624;2023-03-19T04:49:28;12.95;;;8.43;;
62554;SDS011;48610;52.144;8.624;2023-03-19T04:52:30;13.25;;;7.88;;
62554;SDS011;48610;52.144;8.624;2023-03-19T04:55:30;18.75;;;9.13;;
62554;SDS011;48610;52.144;8.624;2023-03-19T04:58:31;19.08;;;9.05;;
62554;SDS011;48610;52.144;8.624;2023-03-19T05:01:32;16.60;;;9.30;;
62554;SDS011;48610;52.144;8.624;2023-03-19T05:04:32;23.63;;;9.90;;
62554;SDS011;48610;52.144;8.624;2023-03-19T05:07:33;18.55;;;10.13;;
62554;SDS011;48610;52.144;8.624;2023-03-19T05:10:34;16.30;;;9.95;;
62554;SDS011;48610;52.144;8.624;2023-03-19T05:13:35;19.17;;;9.57;;
62554;SDS011;48610;52.144;8.624;2023-03-19T05:16:36;18.40;;;9.95;;
62554;SDS011;48610;52.144;8.624;2023-03-19T05:19:36;17.13;;;10.20;;
62554;SDS011;48610;52.144;8.624;2023-03-19T05:22:38;15.38;;;9.23;;
62554;SDS011;48610;52.144;8.624;2023-03-19T05:25:39;16.40;;;10.50;;
62554;SDS011;48610;52.144;8.624;2023-03-19T05:28:39;10.48;;;7.47;;
62554;SDS011;48610;52.144;8.624;2023-03-19T05:31:40;13.70;;;9.48;;
62554;SDS011;48610;52.144;8.624;2023-03-19T05:34:41;18.85;;;9.18;;
62554;SDS011;48610;52.144;8.624;2023-03-19T05:37:42;12.00;;;8.75;;
62554;SDS011;48610;52.144;8.624;2023-03-19T05:40:42;16.73;;;9.52;;
62554;SDS011;48610;52.144;8.624;2023-03-19T05:43:43;15.82;;;8.32;;
62554;SDS011;48610;52.144;8.624;2023-03-19T05:46:44;12.68;;;8.30;;
62554;SDS011;48610;52.144;8.624;2023-03-19T05:49:45;15.82;;;8.40;;
62554;SDS011;48610;52.144;8.624;2023-03-19T05:52:46;12.88;;;8.50;;
62554;SDS011;48610;52.144;8.624;2023-03-19T05:55:46;16.08;;;8.90;;
62554;SDS011;48610;52.144;8.624;2023-03-19T05:58:47;16.63;;;8.98;;
62554;SDS011;48610;52.144;8.624;2023-03-19T06:01:48;18.58;;;8.55;;
62554;SDS011;48610;52.144;8.624;2023-03-19T06:04:48;18.10;;;9.10;;
62554;SDS011;48610;52.144;8.624;2023-03-19T06:07:50;12.25;;;7.80;;
62554;SDS011;48610;52.144;8.624;2023-03-19T06:10:51;17.52;;;9.25;;
62554;SDS011;48610;52.144;8.624;2023-03-19T06:13:52;20.58;;;8.63;;
62554;SDS011;48610;52.144;8.624;2023-03-19T06:16:52;19.38;;;8.70;;
62554;SDS011;48610;52.144;8.624;2023-03-19T06:19:53;14.70;;;8.90;;
62554;SDS011;48610;52.144;8.624;2023-03-19T06:22:54;19.13;;;8.98;;
62554;SDS011;48610;52.144;8.624;2023-03-19T06:25:54;15.50;;;8.93;;
62554;SDS011;48610;52.144;8.624;2023-03-19T06:28:55;15.15;;;8.95;;
62554;SDS011;48610;52.144;8.624;2023-03-19T06:31:56;13.93;;;9.40;;
62554;SDS011;48610;52.144;8.624;2023-03-19T06:34:56;18.20;;;9.20;;
62554;SDS011;48610;52.144;8.624;2023-03-19T06:37:57;15.27;;;9.07;;
62554;SDS011;48610;52.144;8.624;2023-03-19T06:40:58;14.70;;;8.70;;
62554;SDS011;48610;52.144;8.624;2023-03-19T06:43:58;14.38;;;8.95;;
62554;SDS011;48610;52.144;8.624;2023-03-19T06:46:59;18.13;;;9.20;;
62554;SDS011;48610;52.144;8.624;2023-03-19T06:50:00;11.80;;;7.88;;
62554;SDS011;48610;52.144;8.624;2023-03-19T06:53:00;15.10;;;8.48;;
62554;SDS011;48610;52.144;8.624;2023-03-19T06:56:01;11.05;;;7.53;;
62554;SDS011;48610;52.144;8.624;2023-03-19T06:59:01;16.38;;;8.57;;
62554;SDS011;48610;52.144;8.624;2023-03-19T07:02:02;12.98;;;8.20;;
62554;SDS011;48610;52.144;8.624;2023-03-19T07:05:03;17.65;;;8.55;;
62554;SDS011;48610;52.144;8.624;2023-03-19T07:08:04;15.40;;;9.77;;
62554;SDS011;48610;52.144;8.624;2023-03-19T07:11:10;17.40;;;10.43;;
62554;SDS011;48610;52.144;8.624;2023-03-19T07:14:12;17.13;;;10.52;;
62554;SDS011;48610;52.144;8.624;2023-03-19T07:17:13;17.88;;;9.88;;
62554;SDS011;48610;52.144;8.624;2023-03-19T07:20:13;16.65;;;9.13;;
62554;SDS011;48610;52.144;8.624;2023-03-19T07:23:15;18.70;;;8.95;;
62554;SDS011;48610;52.144;8.624;2023-03-19T07:26:16;14.63;;;8.68;;
62554;SDS011;48610;52.144;8.624;2023-03-19T07:29:16;20.38;;;9.57;;
62554;SDS011;48610;52.144;8.624;2023-03-19T07:32:17;14.55;;;9.38;;
62554;SDS011;48610;52.144;8.624;2023-03-19T07:35:18;28.52;;;9.65;;
62554;SDS011;48610;52.144;8.624;2023-03-19T07:38:18;15.38;;;9.70;;
62554;SDS011;48610;52.144;8.624;2023-03-19T07:41:19;16.77;;;9.63;;
62554;SDS011;48610;52.144;8.624;2023-03-19T07:44:20;18.95;;;9.57;;
62554;SDS011;48610;52.144;8.624;2023-03-19T07:47:20;20.23;;;9.65;;
62554;SDS011;48610;52.144;8.624;2023-03-19T07:50:21;14.35;;;9.32;;
62554;SDS011;48610;52.144;8.624;2023-03-19T07:53:22;18.92;;;9.65;;
62554;SDS011;48610;52.144;8.624;2023-03-19T07:56:22;12.77;;;8.18;;
62554;SDS011;48610;52.144;8.624;2023-03-19T07:59:23;17.52;;;8.35;;
62554;SDS011;48610;52.144;8.624;2023-03-19T08:02:23;14.18;;;7.28;;
62554;SDS011;48610;52.144;8.624;2023-03-19T08:05:24;13.05;;;7.28;;
62554;SDS011;48610;52.144;8.624;2023-03-19T08:08:26;11.05;;;6.78;;
62554;SDS011;48610;52.144;8.624;2023-03-19T08:11:26;16.48;;;6.78;;
62554;SDS011;48610;52.144;8.624;2023-03-19T08:14:28;18.95;;;7.10;;
62554;SDS011;48610;52.144;8.624;2023-03-19T08:17:29;23.05;;;6.90;;
62554;SDS011;48610;52.144;8.624;2023-03-19T08:20:30;15.45;;;7.05;;
62554;SDS011;48610;52.144;8.624;2023-03-19T08:23:31;12.75;;;6.82;;
62554;SDS011;48610;52.144;8.624;2023-03-19T08:26:31;14.80;;;7.03;;
62554;SDS011;48610;52.144;8.624;2023-03-19T08:29:32;17.55;;;7.53;;
62554;SDS011;48610;52.144;8.624;2023-03-19T08:32:33;19.73;;;7.82;;
62554;SDS011;48610;52.144;8.624;2023-03-19T08:35:34;17.70;;;7.35;;
62554;SDS011;48610;52.144;8.624;2023-03-19T08:38:35;14.05;;;6.85;;
62554;SDS011;48610;52.144;8.624;2023-03-19T08:41:36;19.10;;;7.15;;
62554;SDS011;48610;52.144;8.624;2023-03-19T08:44:37;19.73;;;7.85;;
62554;SDS011;48610;52.144;8.624;2023-03-19T08:47:37;14.07;;;7.22;;
62554;SDS011;48610;52.144;8.624;2023-03-19T08:50:38;14.18;;;7.88;;
62554;SDS011;48610;52.144;8.624;2023-03-19T08:53:39;19.27;;;8.57;;
62554;SDS011;48610;52.144;8.624;2023-03-19T08:56:39;18.02;;;9.13;;
62554;SDS011;48610;52.144;8.624;2023-03-19T08:59:40;22.67;;;9.27;;
62554;SDS011;48610;52.144;8.624;2023-03-19T09:02:41;16.38;;;7.95;;
62554;SDS011;48610;52.144;8.624;2023-03-19T09:05:41;15.90;;;7.70;;
62554;SDS011;48610;52.144;8.624;2023-03-19T09:08:43;23.60;;;12.57;;
62554;SDS011;48610;52.144;8.624;2023-03-19T09:11:44;14.95;;;7.40;;
62554;SDS011;48610;52.144;8.624;2023-03-19T09:14:45;11.10;;;6.18;;
62554;SDS011;48610;52.144;8.624;2023-03-19T09:17:45;12.93;;;6.07;;
62554;SDS011;48610;52.144;8.624;2023-03-19T09:20:46;15.45;;;6.45;;
62554;SDS011;48610;52.144;8.624;2023-03-19T09:23:47;16.67;;;6.43;;
62554;SDS011;48610;52.144;8.624;2023-03-19T09:26:47;10.27;;;5.80;;
62554;SDS011;48610;52.144;8.624;2023-03-19T09:29:48;10.68;;;6.40;;
62554;SDS011;48610;52.144;8.624;2023-03-19T09:32:49;14.68;;;6.72;;
62554;SDS011;48610;52.144;8.624;2023-03-19T09:35:50;11.70;;;7.00;;
62554;SDS011;48610;52.144;8.624;2023-03-19T09:38:52;10.55;;;6.07;;
62554;SDS011;48610;52.144;8.624;2023-03-19T09:45:26;15.00;;;7.32;;
62554;SDS011;48610;52.144;8.624;2023-03-19T09:48:38;18.13;;;7.03;;
62554;SDS011;48610;52.144;8.624;2023-03-19T09:51:44;15.07;;;7.18;;
62554;SDS011;48610;52.144;8.624;2023-03-19T09:54:55;15.65;;;8.05;;
62554;SDS011;48610;52.144;8.624;2023-03-19T09:57:59;12.57;;;7.43;;
62554;SDS011;48610;52.144;8.624;2023-03-19T10:01:01;12.40;;;7.40;;
62554;SDS011;48610;52.144;8.624;2023-03-19T10:13:55;24.35;;;10.73;;
62554;SDS011;48610;52.144;8.624;2023-03-19T10:16:58;14.77;;;9.18;;
62554;SDS011;48610;52.144;8.624;2023-03-19T10:20:04;15.30;;;8.70;;
62554;SDS011;48610;52.144;8.624;2023-03-19T10:23:27;15.68;;;8.98;;
62554;SDS011;48610;52.144;8.624;2023-03-19T10:26:31;14.63;;;9.27;;
62554;SDS011;48610;52.144;8.624;2023-03-19T10:29:35;19.63;;;9.07;;
62554;SDS011;48610;52.144;8.624;2023-03-19T10:32:41;18.13;;;9.68;;
62554;SDS011;48610;52.144;8.624;2023-03-19T10:35:44;18.30;;;9.38;;
62554;SDS011;48610;52.144;8.624;2023-03-19T10:38:47;18.98;;;9.38;;
62554;SDS011;48610;52.144;8.624;2023-03-19T10:41:49;17.55;;;11.85;;
62554;SDS011;48610;52.144;8.624;2023-03-19T10:48:32;20.80;;;9.98;;
62554;SDS011;48610;52.144;8.624;2023-03-19T10:51:42;17.42;;;8.80;;
62554;SDS011;48610;52.144;8.624;2023-03-19T10:54:47;12.05;;;7.47;;
62554;SDS011;48610;52.144;8.624;2023-03-19T10:57:55;13.02;;;7.47;;
62554;SDS011;48610;52.144;8.624;2023-03-19T11:01:37;11.80;;;7.90;;
62554;SDS011;48610;52.144;8.624;2023-03-19T11:04:38;12.55;;;7.72;;
62554;SDS011;48610;52.144;8.624;2023-03-19T11:07:39;16.50;;;7.63;;
62554;SDS011;48610;52.144;8.624;2023-03-19T11:10:44;13.38;;;7.18;;
62554;SDS011;48610;52.144;8.624;2023-03-19T11:13:47;14.40;;;8.10;;
62554;SDS011;48610;52.144;8.624;2023-03-19T11:19:53;15.88;;;7.63;;
62554;SDS011;48610;52.144;8.624;2023-03-19T11:22:55;12.15;;;7.82;;
62554;SDS011;48610;52.144;8.624;2023-03-19T11:29:02;13.52;;;7.07;;
62554;SDS011;48610;52.144;8.624;2023-03-19T11:35:22;10.68;;;6.55;;
62554;SDS011;48610;52.144;8.624;2023-03-19T11:42:23;11.98;;;7.25;;
62554;SDS011;48610;52.144;8.624;2023-03-19T11:52:13;11.57;;;7.38;;
62554;SDS011;48610;52.144;8.624;2023-03-19T11:55:27;12.57;;;7.05;;
62554;SDS011;48610;52.144;8.624;2023-03-19T12:08:42;12.55;;;7.65;;
62554;SDS011;48610;52.144;8.624;2023-03-19T12:11:59;12.23;;;8.23;;
62554;SDS011;48610;52.144;8.624;2023-03-19T12:15:29;12.00;;;8.40;;
62554;SDS011;48610;52.144;8.624;2023-03-19T12:18:44;18.40;;;11.02;;
62554;SDS011;48610;52.144;8.624;2023-03-19T12:21:57;14.45;;;9.02;;
62554;SDS011;48610;52.144;8.624;2023-03-19T12:28:51;11.55;;;8.27;;
62554;SDS011;48610;52.144;8.624;2023-03-19T12:35:16;12.77;;;8.27;;
62554;SDS011;48610;52.144;8.624;2023-03-19T12:41:42;16.35;;;8.73;;
62554;SDS011;48610;52.144;8.624;2023-03-19T12:44:47;13.23;;;8.40;;
62554;SDS011;48610;52.144;8.624;2023-03-19T12:48:06;15.15;;;9.60;;
62554;SDS011;48610;52.144;8.624;2023-03-19T12:51:11;15.18;;;9.48;;
62554;SDS011;48610;52.144;8.624;2023-03-19T12:54:23;10.82;;;8.20;;
62554;SDS011;48610;52.144;8.624;2023-03-19T12:57:45;14.00;;;8.02;;
62554;SDS011;48610;52.144;8.624;2023-03-19T13:01:02;11.07;;;8.18;;
62554;SDS011;48610;52.144;8.624;2023-03-19T13:04:28;17.40;;;11.57;;
62554;SDS011;48610;52.144;8.624;2023-03-19T13:07:45;17.85;;;10.07;;
62554;SDS011;48610;52.144;8.624;2023-03-19T13:14:04;16.40;;;10.88;;
62554;SDS011;48610;52.144;8.624;2023-03-19T13:17:19;14.52;;;9.90;;
62554;SDS011;48610;52.144;8.624;2023-03-19T13:27:37;18.88;;;11.32;;
62554;SDS011;48610;52.144;8.624;2023-03-19T13:30:38;22.25;;;11.55;;
62554;SDS011;48610;52.144;8.624;2023-03-19T13:33:39;21.40;;;11.55;;
62554;SDS011;48610;52.144;8.624;2023-03-19T13:36:40;22.00;;;11.30;;
62554;SDS011;48610;52.144;8.624;2023-03-19T13:39:41;21.75;;;11.40;;
62554;SDS011;48610;52.144;8.624;2023-03-19T13:42:44;20.42;;;12.27;;
62554;SDS011;48610;52.144;8.624;2023-03-19T13:55:29;17.27;;;10.10;;
62554;SDS011;48610;52.144;8.624;2023-03-19T13:58:43;17.83;;;9.55;;
62554;SDS011;48610;52.144;8.624;2023-03-19T14:01:48;17.80;;;9.65;;
62554;SDS011;48610;52.144;8.624;2023-03-19T14:04:50;20.13;;;9.82;;
62554;SDS011;48610;52.144;8.624;2023-03-19T14:07:57;18.38;;;9.43;;
62554;SDS011;48610;52.144;8.624;2023-03-19T14:10:58;19.83;;;9.60;;
62554;SDS011;48610;52.144;8.624;2023-03-19T14:14:01;16.52;;;10.38;;
62554;SDS011;48610;52.144;8.624;2023-03-19T14:17:04;20.20;;;11.07;;
62554;SDS011;48610;52.144;8.624;2023-03-19T14:20:27;21.23;;;10.48;;
62554;SDS011;48610;52.144;8.624;2023-03-19T14:23:32;18.13;;;9.95;;
62554;SDS011;48610;52.144;8.624;2023-03-19T14:26:37;19.48;;;9.93;;
62554;SDS011;48610;52.144;8.624;2023-03-19T14:29:43;18.77;;;9.85;;
62554;SDS011;48610;52.144;8.624;2023-03-19T14:32:45;20.38;;;10.73;;
62554;SDS011;48610;52.144;8.624;2023-03-19T14:35:47;18.02;;;10.20;;
62554;SDS011;48610;52.144;8.624;2023-03-19T14:42:31;16.42;;;9.18;;
62554;SDS011;48610;52.144;8.624;2023-03-19T14:49:15;15.60;;;8.38;;
62554;SDS011;48610;52.144;8.624;2023-03-19T14:52:41;12.27;;;8.13;;
62554;SDS011;48610;52.144;8.624;2023-03-19T14:55:49;17.35;;;8.52;;
62554;SDS011;48610;52.144;8.624;2023-03-19T14:58:52;14.38;;;8.27;;
62554;SDS011;48610;52.144;8.624;2023-03-19T15:01:54;16.10;;;8.50;;
62554;SDS011;48610;52.144;8.624;2023-03-19T15:04:56;14.70;;;8.82;;
62554;SDS011;48610;52.144;8.624;2023-03-19T15:08:04;14.20;;;8.35;;
62554;SDS011;48610;52.144;8.624;2023-03-19T15:11:18;14.98;;;8.23;;
62554;SDS011;48610;52.144;8.624;2023-03-19T15:15:00;11.48;;;7.85;;
62554;SDS011;48610;52.144;8.624;2023-03-19T15:18:20;13.15;;;8.60;;
62554;SDS011;48610;52.144;8.624;2023-03-19T15:21:22;10.32;;;7.25;;
62554;SDS011;48610;52.144;8.624;2023-03-19T15:24:23;12.68;;;8.02;;
62554;SDS011;48610;52.144;8.624;2023-03-19T15:27:26;11.30;;;7.13;;
62554;SDS011;48610;52.144;8.624;2023-03-19T15:30:26;10.13;;;6.70;;
62554;SDS011;48610;52.144;8.624;2023-03-19T15:33:34;10.07;;;6.35;;
62554;SDS011;48610;52.144;8.624;2023-03-19T15:36:36;9.15;;;5.88;;
62554;SDS011;48610;52.144;8.624;2023-03-19T15:39:41;10.73;;;6.68;;
62554;SDS011;48610;52.144;8.624;2023-03-19T15:42:47;9.25;;;5.85;;
62554;SDS011;48610;52.144;8.624;2023-03-19T15:45:50;7.60;;;5.78;;
62554;SDS011;48610;52.144;8.624;2023-03-19T15:48:55;10.60;;;7.03;;
62554;SDS011;48610;52.144;8.624;2023-03-19T15:52:05;9.75;;;6.45;;
62554;SDS011;48610;52.144;8.624;2023-03-19T15:58:14;9.65;;;5.57;;
62554;SDS011;48610;52.144;8.624;2023-03-19T16:01:18;12.95;;;9.02;;
62554;SDS011;48610;52.144;8.624;2023-03-19T16:04:21;23.73;;;14.38;;
62554;SDS011;48610;52.144;8.624;2023-03-19T16:10:36;23.70;;;14.88;;
62554;SDS011;48610;52.144;8.624;2023-03-19T16:13:39;30.58;;;14.35;;
62554;SDS011;48610;52.144;8.624;2023-03-19T16:16:44;27.33;;;16.13;;
62554;SDS011;48610;52.144;8.624;2023-03-19T16:19:55;26.83;;;14.02;;
62554;SDS011;48610;52.144;8.624;2023-03-19T16:23:00;29.48;;;17.55;;
62554;SDS011;48610;52.144;8.624;2023-03-19T16:26:20;11.90;;;7.60;;
62554;SDS011;48610;52.144;8.624;2023-03-19T16:29:27;11.10;;;6.97;;
62554;SDS011;48610;52.144;8.624;2023-03-19T16:32:30;13.70;;;6.13;;
62554;SDS011;48610;52.144;8.624;2023-03-19T16:35:32;9.38;;;5.22;;
62554;SDS011;48610;52.144;8.624;2023-03-19T16:38:41;10.00;;;5.97;;
62554;SDS011;48610;52.144;8.624;2023-03-19T16:41:44;6.97;;;4.88;;
62554;SDS011;48610;52.144;8.624;2023-03-19T16:48:14;7.70;;;4.55;;
62554;SDS011;48610;52.144;8.624;2023-03-19T16:51:16;6.95;;;4.70;;
62554;SDS011;48610;52.144;8.624;2023-03-19T16:54:18;7.63;;;5.20;;
62554;SDS011;48610;52.144;8.624;2023-03-19T16:57:19;12.98;;;5.75;;
62554;SDS011;48610;52.144;8.624;2023-03-19T17:00:20;11.10;;;6.88;;
62554;SDS011;48610;52.144;8.624;2023-03-19T17:03:22;12.73;;;6.72;;
62554;SDS011;48610;52.144;8.624;2023-03-19T17:06:24;10.45;;;7.15;;
62554;SDS011;48610;52.144;8.624;2023-03-19T17:09:28;9.43;;;6.15;;
62554;SDS011;48610;52.144;8.624;2023-03-19T17:12:28;9.40;;;6.65;;
62554;SDS011;48610;52.144;8.624;2023-03-19T17:15:34;9.13;;;5.85;;
62554;SDS011;48610;52.144;8.624;2023-03-19T17:18:37;9.57;;;6.28;;
62554;SDS011;48610;52.144;8.624;2023-03-19T17:21:40;11.13;;;7.03;;
62554;SDS011;48610;52.144;8.624;2023-03-19T17:24:41;13.25;;;7.95;;
62554;SDS011;48610;52.144;8.624;2023-03-19T17:27:42;15.88;;;8.48;;
62554;SDS011;48610;52.144;8.624;2023-03-19T17:30:43;16.73;;;9.15;;
62554;SDS011;48610;52.144;8.624;2023-03-19T17:33:43;20.80;;;10.68;;
62554;SDS011;48610;52.144;8.624;2023-03-19T17:36:48;21.08;;;10.15;;
62554;SDS011;48610;52.144;8.624;2023-03-19T17:39:50;16.65;;;9.43;;
62554;SDS011;48610;52.144;8.624;2023-03-19T17:42:51;17.85;;;9.63;;
62554;SDS011;48610;52.144;8.624;2023-03-19T17:45:52;19.55;;;10.68;;
62554;SDS011;48610;52.144;8.624;2023-03-19T17:48:54;16.35;;;9.75;;
62554;SDS011;48610;52.144;8.624;2023-03-19T17:51:55;17.33;;;10.50;;
62554;SDS011;48610;52.144;8.624;2023-03-19T17:54:56;16.17;;;9.60;;
62554;SDS011;48610;52.144;8.624;2023-03-19T17:57:57;14.23;;;9.07;;
62554;SDS011;48610;52.144;8.624;2023-03-19T18:00:57;14.85;;;8.93;;
62554;SDS011;48610;52.144;8.624;2023-03-19T18:03:58;15.10;;;9.07;;
62554;SDS011;48610;52.144;8.624;2023-03-19T18:07:00;16.25;;;9.35;;
62554;SDS011;48610;52.144;8.624;2023-03-19T18:10:01;17.33;;;9.57;;
62554;SDS011;48610;52.144;8.624;2023-03-19T18:13:02;14.00;;;8.90;;
62554;SDS011;48610;52.144;8.624;2023-03-19T18:16:03;15.50;;;10.02;;
62554;SDS011;48610;52.144;8.624;2023-03-19T18:19:09;20.75;;;12.35;;
62554;SDS011;48610;52.144;8.624;2023-03-19T18:22:25;20.50;;;12.38;;
62554;SDS011;48610;52.144;8.624;2023-03-19T18:25:27;26.05;;;13.45;;
62554;SDS011;48610;52.144;8.624;2023-03-19T18:28:30;23.33;;;12.65;;
62554;SDS011;48610;52.144;8.624;2023-03-19T18:31:31;17.83;;;10.95;;
62554;SDS011;48610;52.144;8.624;2023-03-19T18:34:32;22.92;;;12.90;;
62554;SDS011;48610;52.144;8.624;2023-03-19T18:37:32;25.02;;;12.98;;
62554;SDS011;48610;52.144;8.624;2023-03-19T18:40:33;23.45;;;12.80;;
62554;SDS011;48610;52.144;8.624;2023-03-19T18:43:34;23.15;;;13.85;;
62554;SDS011;48610;52.144;8.624;2023-03-19T18:46:35;20.98;;;12.98;;
62554;SDS011;48610;52.144;8.624;2023-03-19T18:49:37;22.13;;;12.45;;
62554;SDS011;48610;52.144;8.624;2023-03-19T18:52:38;26.52;;;13.13;;
62554;SDS011;48610;52.144;8.624;2023-03-19T18:55:38;28.75;;;14.07;;
62554;SDS011;48610;52.144;8.624;2023-03-19T18:58:39;21.35;;;13.40;;
62554;SDS011;48610;52.144;8.624;2023-03-19T19:01:40;21.05;;;13.07;;
62554;SDS011;48610;52.144;8.624;2023-03-19T19:04:41;23.85;;;14.18;;
62554;SDS011;48610;52.144;8.624;2023-03-19T19:07:42;22.10;;;14.05;;
62554;SDS011;48610;52.144;8.624;2023-03-19T19:10:46;25.27;;;13.88;;
62554;SDS011;48610;52.144;8.624;2023-03-19T19:13:50;22.92;;;13.82;;
62554;SDS011;48610;52.144;8.624;2023-03-19T19:16:54;22.25;;;13.82;;
62554;SDS011;48610;52.144;8.624;2023-03-19T19:19:55;20.25;;;13.65;;
62554;SDS011;48610;52.144;8.624;2023-03-19T19:22:56;21.35;;;13.50;;
62554;SDS011;48610;52.144;8.624;2023-03-19T19:25:57;19.05;;;12.30;;
62554;SDS011;48610;52.144;8.624;2023-03-19T19:28:57;24.13;;;14.82;;
62554;SDS011;48610;52.144;8.624;2023-03-19T19:31:59;22.23;;;14.68;;
62554;SDS011;48610;52.144;8.624;2023-03-19T19:35:04;24.75;;;15.02;;
62554;SDS011;48610;52.144;8.624;2023-03-19T19:38:13;28.15;;;16.15;;